createdAt,value
2018-12-21T00:01:24.317Z,2.40
2018-12-21T00:03:53.615Z,2.30
2018-12-21T00:06:23.302Z,2.20
2018-12-21T00:08:52.578Z,2.50
2018-12-21T00:11:21.886Z,2.60
2018-12-21T00:13:51.160Z,2.60
2018-12-21T00:16:20.537Z,2.60
2018-12-21T00:18:49.810Z,2.60
2018-12-21T00:21:21.943Z,2.60
2018-12-21T00:23:50.440Z,2.60
2018-12-21T00:26:20.826Z,2.60
2018-12-21T00:28:50.141Z,2.60
2018-12-21T00:31:24.681Z,2.60
2018-12-21T00:33:59.128Z,2.60
2018-12-21T00:36:33.594Z,2.60
2018-12-21T00:39:08.074Z,2.70
2018-12-21T00:41:37.031Z,2.70
2018-12-21T00:44:11.483Z,2.80
2018-12-21T00:46:46.694Z,2.80
2018-12-21T00:49:15.976Z,2.80
2018-12-21T00:51:45.374Z,2.80
2018-12-21T00:54:14.942Z,2.90
2018-12-21T00:56:44.298Z,2.80
2018-12-21T00:59:13.673Z,2.70
2018-12-21T01:01:43.036Z,2.50
2018-12-21T01:04:12.334Z,2.40
2018-12-21T01:06:41.966Z,2.30
2018-12-21T01:09:11.490Z,2.20
2018-12-21T01:11:40.855Z,2.30
2018-12-21T01:14:10.154Z,2.20
2018-12-21T01:16:39.562Z,2.30
2018-12-21T01:19:08.927Z,2.30
2018-12-21T01:21:38.916Z,2.20
2018-12-21T01:24:08.586Z,2.20
2018-12-21T01:26:37.962Z,2.20
2018-12-21T01:29:07.227Z,2.20
2018-12-21T01:31:37.111Z,2.10
2018-12-21T01:34:06.543Z,2.10
2018-12-21T01:36:35.842Z,2.10
2018-12-21T01:39:07.332Z,2.00
2018-12-21T01:41:36.823Z,2.10
2018-12-21T01:44:06.194Z,2.10
2018-12-21T01:46:35.492Z,2.20
2018-12-21T01:49:05.043Z,2.20
2018-12-21T01:51:34.299Z,2.30
2018-12-21T01:54:03.661Z,2.30
2018-12-21T01:56:32.943Z,2.30
2018-12-21T01:59:02.390Z,2.20
2018-12-21T02:01:31.675Z,2.30
2018-12-21T02:04:00.969Z,2.30
2018-12-21T02:06:30.249Z,2.30
2018-12-21T02:08:59.570Z,2.30
2018-12-21T02:11:28.844Z,2.20
2018-12-21T02:13:58.128Z,2.20
2018-12-21T02:16:29.004Z,2.10
2018-12-21T02:18:58.344Z,2.10
2018-12-21T02:21:27.626Z,2.00
2018-12-21T02:23:57.049Z,2.00
2018-12-21T02:26:26.454Z,2.00
2018-12-21T02:28:55.991Z,1.90
2018-12-21T02:31:25.505Z,2.00
2018-12-21T02:33:54.818Z,2.00
2018-12-21T02:36:24.078Z,2.00
2018-12-21T02:38:53.391Z,2.00
2018-12-21T02:41:22.656Z,2.10
2018-12-21T02:43:52.506Z,2.10
2018-12-21T02:46:21.870Z,2.10
2018-12-21T02:48:51.626Z,2.10
2018-12-21T02:51:20.951Z,2.10
2018-12-21T02:53:50.337Z,2.10
2018-12-21T02:56:19.712Z,2.10
2018-12-21T02:58:49.011Z,2.00
2018-12-21T03:01:18.352Z,2.00
2018-12-21T03:03:47.622Z,2.00
2018-12-21T03:06:17.281Z,2.00
2018-12-21T03:08:46.553Z,2.10
2018-12-21T03:11:15.875Z,2.20
2018-12-21T03:13:45.165Z,2.30
2018-12-21T03:16:14.397Z,2.30
2018-12-21T03:18:43.685Z,2.40
2018-12-21T03:21:13.791Z,2.40
2018-12-21T03:23:43.878Z,2.50
2018-12-21T03:26:13.130Z,2.50
2018-12-21T03:28:43.066Z,2.50
2018-12-21T03:31:12.509Z,2.50
2018-12-21T03:33:41.866Z,2.40
2018-12-21T03:36:11.123Z,2.40
2018-12-21T03:38:40.484Z,2.40
2018-12-21T03:41:09.765Z,2.40
2018-12-21T03:43:39.077Z,2.40
2018-12-21T03:46:08.317Z,2.30
2018-12-21T03:48:37.584Z,2.20
2018-12-21T03:51:06.861Z,2.20
2018-12-21T03:53:36.124Z,2.10
2018-12-21T03:56:05.519Z,2.10
2018-12-21T03:58:34.902Z,2.10
2018-12-21T04:01:04.393Z,2.10
2018-12-21T04:03:33.748Z,2.10
2018-12-21T04:06:03.019Z,2.10
2018-12-21T04:08:32.316Z,2.10
2018-12-21T04:11:02.100Z,2.10
2018-12-21T04:13:31.969Z,2.10
2018-12-21T04:16:00.446Z,2.10
2018-12-21T04:18:29.702Z,2.10
2018-12-21T04:20:58.960Z,2.10
2018-12-21T04:23:28.270Z,2.20
2018-12-21T04:25:57.565Z,2.10
2018-12-21T04:28:26.858Z,2.20
2018-12-21T04:30:56.107Z,2.20
2018-12-21T04:33:25.406Z,2.20
2018-12-21T04:35:54.658Z,2.30
2018-12-21T04:38:23.956Z,2.30
2018-12-21T04:40:53.310Z,2.40
2018-12-21T04:43:22.591Z,2.40
2018-12-21T04:45:50.935Z,2.40
2018-12-21T04:48:20.321Z,2.50
2018-12-21T04:50:49.599Z,2.50
2018-12-21T04:53:18.842Z,2.50
2018-12-21T04:55:48.108Z,2.60
2018-12-21T04:58:17.537Z,2.60
2018-12-21T05:00:46.794Z,2.60
2018-12-21T05:03:16.063Z,2.60
2018-12-21T05:05:45.437Z,2.70
2018-12-21T05:10:43.287Z,2.60
2018-12-21T05:13:12.628Z,2.70
2018-12-21T05:15:41.942Z,2.70
2018-12-21T05:18:11.291Z,2.60
2018-12-21T05:20:40.767Z,2.60
2018-12-21T05:23:10.047Z,2.60
2018-12-21T05:25:39.628Z,2.60
2018-12-21T05:28:08.911Z,2.60
2018-12-21T05:30:38.172Z,2.70
2018-12-21T05:33:07.688Z,2.70
2018-12-21T05:35:36.957Z,2.70
2018-12-21T05:38:06.251Z,2.80
2018-12-21T05:40:35.538Z,2.80
2018-12-21T05:43:05.107Z,2.80
2018-12-21T05:45:34.548Z,2.70
2018-12-21T05:48:03.818Z,2.80
2018-12-21T05:50:33.117Z,2.80
2018-12-21T05:53:02.366Z,2.80
2018-12-21T05:55:31.635Z,2.90
2018-12-21T05:58:00.890Z,2.80
2018-12-21T06:00:30.150Z,2.80
2018-12-21T06:02:59.478Z,2.90
2018-12-21T06:05:28.732Z,3.00
2018-12-21T06:07:58.179Z,3.00
2018-12-21T06:10:27.539Z,2.90
2018-12-21T06:12:56.828Z,2.90
2018-12-21T06:15:26.141Z,2.90
2018-12-21T06:17:55.400Z,2.80
2018-12-21T06:20:24.838Z,2.80
2018-12-21T06:22:54.161Z,2.80
2018-12-21T06:25:23.645Z,2.80
2018-12-21T06:27:53.030Z,2.80
2018-12-21T06:30:22.468Z,2.80
2018-12-21T06:32:52.009Z,2.80
2018-12-21T06:35:21.358Z,2.90
2018-12-21T06:37:50.739Z,2.90
2018-12-21T06:40:19.999Z,2.90
2018-12-21T06:42:50.761Z,2.90
2018-12-21T06:45:20.341Z,2.90
2018-12-21T06:47:49.622Z,3.00
2018-12-21T06:50:18.915Z,3.10
2018-12-21T06:52:48.221Z,3.20
2018-12-21T06:55:17.489Z,3.30
2018-12-21T06:57:47.658Z,3.30
2018-12-21T07:00:17.137Z,3.40
2018-12-21T07:02:46.496Z,3.30
2018-12-21T07:05:16.822Z,3.40
2018-12-21T07:07:46.086Z,3.30
2018-12-21T07:10:15.420Z,3.30
2018-12-21T07:12:46.786Z,3.30
2018-12-21T07:15:16.070Z,3.30
2018-12-21T07:17:48.789Z,3.20
2018-12-21T07:20:18.035Z,3.10
2018-12-21T07:22:47.369Z,3.10
2018-12-21T07:25:16.664Z,3.10
2018-12-21T07:27:46.051Z,3.10
2018-12-21T07:30:15.597Z,3.10
2018-12-21T07:32:45.733Z,3.10
2018-12-21T07:35:17.562Z,3.10
2018-12-21T07:37:46.868Z,3.10
2018-12-21T07:43:19.195Z,3.00
2018-12-21T07:45:48.470Z,3.00
2018-12-21T07:48:17.718Z,3.00
2018-12-21T07:50:47.020Z,3.00
2018-12-21T07:53:16.274Z,3.00
2018-12-21T07:55:45.521Z,3.10
2018-12-21T07:58:14.973Z,3.20
2018-12-21T08:00:44.386Z,3.30
2018-12-21T08:03:13.868Z,3.40
2018-12-21T08:05:43.242Z,3.60
2018-12-21T08:08:12.554Z,3.60
2018-12-21T08:10:42.772Z,3.70
2018-12-21T08:13:12.146Z,3.70
2018-12-21T08:15:41.480Z,3.80
2018-12-21T08:18:10.762Z,3.80
2018-12-21T08:20:40.080Z,3.90
2018-12-21T08:23:09.446Z,4.00
2018-12-21T08:25:38.794Z,4.10
2018-12-21T08:28:08.174Z,4.10
2018-12-21T08:30:37.496Z,4.20
2018-12-21T08:33:06.789Z,4.20
2018-12-21T08:35:36.519Z,4.30
2018-12-21T08:38:05.807Z,4.40
2018-12-21T08:40:35.207Z,4.40
2018-12-21T08:43:04.500Z,4.50
2018-12-21T08:45:33.749Z,4.50
2018-12-21T08:48:03.062Z,4.60
2018-12-21T08:50:32.416Z,4.60
2018-12-21T08:53:01.695Z,4.70
2018-12-21T08:55:30.939Z,4.80
2018-12-21T08:58:00.339Z,4.90
2018-12-21T09:00:30.429Z,4.90
2018-12-21T09:02:59.699Z,5.00
2018-12-21T09:05:29.046Z,5.10
2018-12-21T09:07:58.554Z,5.20
2018-12-21T09:10:27.808Z,5.40
2018-12-21T09:12:57.183Z,5.60
2018-12-21T09:15:26.547Z,5.70
2018-12-21T09:17:55.905Z,5.90
2018-12-21T09:20:25.159Z,6.10
2018-12-21T09:22:54.427Z,6.20
2018-12-21T09:25:23.703Z,6.20
2018-12-21T09:27:53.002Z,6.20
2018-12-21T09:30:22.275Z,6.10
2018-12-21T09:32:51.673Z,5.90
2018-12-21T09:35:21.050Z,5.70
2018-12-21T09:37:50.428Z,5.60
2018-12-21T09:40:19.766Z,5.40
2018-12-21T09:42:49.031Z,5.40
2018-12-21T09:45:18.400Z,5.30
2018-12-21T09:47:47.747Z,5.30
2018-12-21T09:50:17.022Z,5.20
2018-12-21T09:52:47.165Z,5.30
2018-12-21T09:55:16.513Z,5.30
2018-12-21T09:57:45.780Z,5.30
2018-12-21T10:00:15.133Z,5.40
2018-12-21T10:02:44.435Z,5.50
2018-12-21T10:05:16.603Z,5.50
2018-12-21T10:07:46.842Z,5.50
2018-12-21T10:10:16.377Z,5.50
2018-12-21T10:12:46.042Z,5.50
2018-12-21T10:15:16.360Z,5.50
2018-12-21T10:20:43.630Z,5.50
2018-12-21T10:23:13.246Z,5.50
2018-12-21T10:25:43.602Z,5.50
2018-12-21T10:28:13.083Z,5.50
2018-12-21T10:30:43.355Z,5.50
2018-12-21T10:33:12.822Z,5.50
2018-12-21T10:35:42.111Z,5.50
2018-12-21T10:38:12.385Z,5.50
2018-12-21T10:40:41.638Z,5.50
2018-12-21T10:43:10.894Z,5.50
2018-12-21T10:45:41.692Z,5.50
2018-12-21T10:48:11.375Z,5.50
2018-12-21T10:50:40.923Z,5.50
2018-12-21T10:53:10.271Z,5.50
2018-12-21T10:55:39.570Z,5.50
2018-12-21T10:58:08.920Z,5.50
2018-12-21T11:00:38.261Z,5.50
2018-12-21T11:03:07.616Z,5.50
2018-12-21T11:05:36.897Z,5.50
2018-12-21T11:08:06.164Z,5.50
2018-12-21T11:10:35.613Z,5.50
2018-12-21T11:13:04.992Z,5.60
2018-12-21T11:15:34.745Z,5.60
2018-12-21T11:18:04.157Z,5.60
2018-12-21T11:20:33.412Z,5.60
2018-12-21T11:23:02.706Z,5.60
2018-12-21T11:25:32.067Z,5.60
2018-12-21T11:28:01.348Z,5.60
2018-12-21T11:30:30.639Z,5.50
2018-12-21T11:36:05.354Z,5.50
2018-12-21T11:38:34.622Z,5.50
2018-12-21T11:41:04.063Z,5.50
2018-12-21T11:43:35.266Z,5.50
2018-12-21T11:46:04.873Z,5.50
2018-12-21T11:48:34.111Z,5.50
2018-12-21T11:51:03.454Z,5.50
2018-12-21T11:53:32.703Z,5.50
2018-12-21T11:56:02.075Z,5.50
2018-12-21T11:58:31.358Z,5.50
2018-12-21T12:01:00.633Z,5.50
2018-12-21T12:03:29.956Z,5.60
2018-12-21T12:05:59.206Z,5.60
2018-12-21T12:08:28.472Z,5.60
2018-12-21T12:10:57.870Z,5.70
2018-12-21T12:13:27.196Z,5.70
2018-12-21T12:15:56.464Z,5.70
2018-12-21T12:18:25.730Z,5.70
2018-12-21T12:20:55.542Z,5.80
2018-12-21T12:23:24.990Z,5.80
2018-12-21T12:25:54.266Z,5.90
2018-12-21T12:28:23.533Z,5.90
2018-12-21T12:30:55.235Z,5.90
2018-12-21T12:33:24.458Z,5.90
2018-12-21T12:35:53.710Z,5.90
2018-12-21T12:38:23.045Z,6.00
2018-12-21T12:40:52.313Z,6.00
2018-12-21T12:43:28.706Z,6.00
2018-12-21T12:45:58.047Z,6.10
2018-12-21T12:48:27.365Z,6.10
2018-12-21T12:50:56.622Z,6.00
2018-12-21T12:53:25.890Z,6.10
2018-12-21T12:55:55.182Z,6.10
2018-12-21T12:58:24.458Z,6.10
2018-12-21T13:00:54.065Z,6.10
2018-12-21T13:03:23.458Z,6.20
2018-12-21T13:05:52.709Z,6.20
2018-12-21T13:08:21.982Z,6.20
2018-12-21T13:10:51.292Z,6.20
2018-12-21T13:13:20.546Z,6.30
2018-12-21T13:15:49.889Z,6.30
2018-12-21T13:18:20.031Z,6.40
2018-12-21T13:20:49.286Z,6.50
2018-12-21T13:23:18.829Z,6.60
2018-12-21T13:25:48.529Z,6.70
2018-12-21T13:28:17.908Z,6.70
2018-12-21T13:30:47.271Z,6.90
2018-12-21T13:33:16.961Z,6.90
2018-12-21T13:35:46.311Z,6.90
2018-12-21T13:38:15.527Z,7.00
2018-12-21T13:40:44.829Z,7.10
2018-12-21T13:43:14.056Z,7.10
2018-12-21T13:45:43.291Z,7.20
2018-12-21T13:48:13.313Z,7.20
2018-12-21T13:50:42.582Z,7.30
2018-12-21T13:53:11.843Z,7.40
2018-12-21T13:55:41.062Z,7.40
2018-12-21T13:58:10.382Z,7.50
2018-12-21T14:00:39.687Z,7.60
2018-12-21T14:03:08.939Z,7.70
2018-12-21T14:05:38.253Z,7.80
2018-12-21T14:11:05.974Z,7.90
2018-12-21T14:13:35.239Z,8.00
2018-12-21T14:16:04.543Z,8.10
2018-12-21T14:18:33.793Z,8.20
2018-12-21T14:21:03.150Z,8.20
2018-12-21T14:23:32.364Z,8.30
2018-12-21T14:26:02.478Z,8.30
2018-12-21T14:28:31.761Z,8.20
2018-12-21T14:31:02.190Z,8.30
2018-12-21T14:33:31.442Z,8.30
2018-12-21T14:36:00.655Z,8.20
2018-12-21T14:38:29.906Z,8.30
2018-12-21T14:40:59.590Z,8.20
2018-12-21T14:43:28.894Z,8.20
2018-12-21T14:45:58.199Z,8.20
2018-12-21T14:48:27.497Z,8.10
2018-12-21T14:50:56.817Z,8.10
2018-12-21T14:53:26.085Z,8.20
2018-12-21T14:55:55.466Z,8.20
2018-12-21T14:58:24.765Z,8.30
2018-12-21T15:00:54.148Z,8.20
2018-12-21T15:03:23.382Z,8.30
2018-12-21T15:05:52.728Z,8.30
2018-12-21T15:08:22.174Z,8.30
2018-12-21T15:10:51.454Z,8.30
2018-12-21T15:13:20.845Z,8.20
2018-12-21T15:15:50.222Z,8.20
2018-12-21T15:18:20.464Z,8.20
2018-12-21T15:20:49.821Z,8.30
2018-12-21T15:23:19.090Z,9.20
2018-12-21T15:25:48.345Z,8.30
2018-12-21T15:28:18.587Z,8.40
2018-12-21T15:30:47.785Z,8.40
2018-12-21T15:33:17.098Z,8.50
2018-12-21T15:35:46.852Z,8.40
2018-12-21T15:38:19.127Z,7.80
2018-12-21T15:40:48.370Z,8.40
2018-12-21T15:43:17.594Z,8.40
2018-12-21T15:45:46.798Z,8.30
2018-12-21T15:48:16.046Z,8.40
2018-12-21T15:50:46.327Z,8.40
2018-12-21T15:53:15.575Z,8.40
2018-12-21T15:55:44.882Z,8.40
2018-12-21T15:58:14.519Z,8.40
2018-12-21T16:00:43.878Z,8.40
2018-12-21T16:03:13.243Z,8.40
2018-12-21T16:05:42.571Z,8.40
2018-12-21T16:08:11.890Z,8.50
2018-12-21T16:10:41.243Z,8.50
2018-12-21T16:13:10.496Z,8.50
2018-12-21T16:15:39.839Z,8.50
2018-12-21T16:18:09.115Z,8.40
2018-12-21T16:20:38.334Z,8.30
2018-12-21T16:23:07.678Z,8.20
2018-12-21T16:25:36.915Z,8.20
2018-12-21T16:28:06.341Z,8.20
2018-12-21T16:30:35.717Z,8.20
2018-12-21T16:33:05.123Z,8.30
2018-12-21T16:35:34.497Z,8.30
2018-12-21T16:38:03.858Z,8.30
2018-12-21T16:40:33.365Z,8.30
2018-12-21T16:46:06.553Z,8.40
2018-12-21T16:48:35.836Z,8.40
2018-12-21T16:51:05.341Z,8.40
2018-12-21T16:53:34.731Z,8.40
2018-12-21T16:56:12.205Z,8.30
2018-12-21T16:58:35.450Z,8.30
2018-12-21T17:01:04.989Z,8.40
2018-12-21T17:03:34.344Z,8.40
2018-12-21T17:06:03.737Z,8.40
2018-12-21T17:08:32.997Z,8.50
2018-12-21T17:11:02.271Z,8.50
2018-12-21T17:13:31.621Z,8.60
2018-12-21T17:16:00.857Z,8.60
2018-12-21T17:18:30.448Z,8.60
2018-12-21T17:20:59.681Z,8.60
2018-12-21T17:23:28.930Z,8.60
2018-12-21T17:25:58.167Z,8.60
2018-12-21T17:28:27.505Z,8.70
2018-12-21T17:30:56.751Z,8.80
2018-12-21T17:33:25.988Z,8.80
2018-12-21T17:35:55.237Z,8.90
2018-12-21T17:38:24.504Z,8.90
2018-12-21T17:40:53.825Z,8.90
2018-12-21T17:43:23.148Z,8.90
2018-12-21T17:45:52.389Z,9.00
2018-12-21T17:48:21.676Z,9.10
2018-12-21T17:50:50.905Z,9.10
2018-12-21T17:53:20.231Z,9.10
2018-12-21T17:55:49.575Z,9.20
2018-12-21T17:58:18.853Z,9.20
2018-12-21T18:00:48.078Z,9.20
2018-12-21T18:03:34.773Z,9.30
2018-12-21T18:06:04.246Z,9.30
2018-12-21T18:08:33.578Z,9.30
2018-12-21T18:11:02.926Z,9.40
2018-12-21T18:13:32.259Z,9.40
2018-12-21T18:16:01.545Z,9.40
2018-12-21T18:18:31.091Z,9.40
2018-12-21T18:21:00.383Z,9.50
2018-12-21T18:23:29.606Z,9.50
2018-12-21T18:25:58.827Z,9.60
2018-12-21T18:28:29.467Z,9.60
2018-12-21T18:31:15.979Z,9.60
2018-12-21T18:33:45.556Z,9.60
2018-12-21T18:36:14.818Z,9.60
2018-12-21T18:38:44.043Z,9.60
2018-12-21T18:41:13.290Z,9.60
2018-12-21T18:43:42.640Z,9.60
2018-12-21T18:46:12.161Z,9.60
2018-12-21T18:48:41.458Z,9.60
2018-12-21T18:51:10.909Z,9.60
2018-12-21T18:53:40.186Z,9.60
2018-12-21T18:56:16.737Z,9.70
2018-12-21T18:58:45.992Z,9.70
2018-12-21T19:01:15.205Z,9.70
2018-12-21T19:03:44.578Z,9.70
2018-12-21T19:06:13.808Z,9.70
2018-12-21T19:08:43.115Z,9.60
2018-12-21T19:11:12.435Z,9.60
2018-12-21T19:13:41.754Z,9.70
2018-12-21T19:16:15.469Z,9.70
2018-12-21T19:18:44.873Z,9.70
2018-12-21T19:21:14.122Z,9.60
2018-12-21T19:26:18.881Z,9.60
2018-12-21T19:28:48.109Z,9.60
2018-12-21T19:31:17.407Z,9.60
2018-12-21T19:33:46.835Z,9.60
2018-12-21T19:36:16.377Z,9.60
2018-12-21T19:38:45.650Z,9.60
2018-12-21T19:41:14.923Z,9.70
2018-12-21T19:43:44.151Z,9.60
2018-12-21T19:46:13.614Z,9.60
2018-12-21T19:48:42.964Z,9.70
2018-12-21T19:51:12.348Z,9.60
2018-12-21T19:53:42.190Z,9.60
2018-12-21T19:56:26.033Z,9.60
2018-12-21T19:58:55.310Z,9.70
2018-12-21T20:01:24.643Z,9.60
2018-12-21T20:03:53.930Z,9.60
2018-12-21T20:06:23.186Z,9.60
2018-12-21T20:08:52.461Z,9.60
2018-12-21T20:11:21.732Z,9.60
2018-12-21T20:13:55.951Z,9.60
2018-12-21T20:16:25.166Z,9.60
2018-12-21T20:18:54.582Z,9.60
2018-12-21T20:21:23.826Z,9.60
2018-12-21T20:23:53.145Z,9.60
2018-12-21T20:26:22.406Z,8.50
2018-12-21T20:28:51.787Z,9.60
2018-12-21T20:31:21.106Z,9.50
2018-12-21T20:33:50.353Z,9.60
2018-12-21T20:36:19.782Z,9.60
2018-12-21T20:38:49.753Z,9.60
2018-12-21T20:41:19.062Z,9.60
2018-12-21T20:43:48.289Z,9.60
2018-12-21T20:46:17.603Z,9.60
2018-12-21T20:48:46.984Z,9.60
2018-12-21T20:51:16.258Z,9.60
2018-12-21T20:53:45.598Z,9.50
2018-12-21T20:56:14.822Z,9.60
2018-12-21T21:01:48.745Z,9.60
2018-12-21T21:04:18.015Z,9.50
2018-12-21T21:06:47.286Z,9.50
2018-12-21T21:09:16.790Z,9.50
2018-12-21T21:11:48.203Z,9.50
2018-12-21T21:14:19.645Z,9.50
2018-12-21T21:16:48.943Z,9.50
2018-12-21T21:19:18.177Z,9.50
2018-12-21T21:21:48.382Z,9.40
2018-12-21T21:24:17.615Z,9.40
2018-12-21T21:26:47.629Z,9.40
2018-12-21T21:29:16.944Z,9.50
2018-12-21T21:31:50.592Z,9.50
2018-12-21T21:34:19.826Z,9.50
2018-12-21T21:36:49.126Z,9.50
2018-12-21T21:39:18.366Z,9.50
2018-12-21T21:41:47.730Z,9.50
2018-12-21T21:44:18.794Z,9.50
2018-12-21T21:46:48.178Z,9.50
2018-12-21T21:49:19.372Z,9.50
2018-12-21T21:51:48.803Z,9.40
2018-12-21T21:54:18.214Z,9.50
2018-12-21T21:56:47.561Z,9.50
2018-12-21T21:59:16.758Z,9.50
2018-12-21T22:01:46.001Z,9.50
2018-12-21T22:04:15.775Z,9.60
2018-12-21T22:06:45.067Z,9.60
2018-12-21T22:09:14.252Z,9.60
2018-12-21T22:11:43.530Z,9.60
2018-12-21T22:14:12.842Z,9.60
2018-12-21T22:16:42.134Z,9.60
2018-12-21T22:19:12.301Z,9.60
2018-12-21T22:21:41.569Z,9.60
2018-12-21T22:24:10.834Z,9.70
2018-12-21T22:26:40.052Z,9.60
2018-12-21T22:29:09.282Z,9.70
2018-12-21T22:34:44.739Z,9.70
2018-12-21T22:37:14.878Z,9.70
2018-12-21T22:39:44.184Z,9.70
2018-12-21T22:42:13.418Z,9.70
2018-12-21T22:44:42.845Z,9.70
2018-12-21T22:47:12.141Z,9.80
2018-12-21T22:49:41.567Z,9.80
2018-12-21T22:52:10.842Z,9.80
2018-12-21T22:54:40.065Z,9.80
2018-12-21T22:57:09.366Z,9.80
2018-12-21T22:59:39.010Z,9.80
2018-12-21T23:02:08.331Z,9.90
2018-12-21T23:04:37.660Z,9.80
2018-12-21T23:07:29.969Z,9.90
2018-12-21T23:09:59.614Z,9.90
2018-12-21T23:12:29.054Z,9.80
2018-12-21T23:14:58.306Z,9.70
2018-12-21T23:17:27.578Z,9.60
2018-12-21T23:19:56.815Z,9.60
2018-12-21T23:22:26.147Z,9.60
2018-12-21T23:24:55.434Z,9.60
2018-12-21T23:27:24.656Z,9.70
2018-12-21T23:29:53.869Z,9.70
2018-12-21T23:32:23.121Z,9.80
2018-12-21T23:34:52.343Z,9.80
2018-12-21T23:37:21.653Z,9.80
2018-12-21T23:39:50.876Z,9.80
2018-12-21T23:42:20.121Z,9.90
2018-12-21T23:44:50.530Z,9.90
2018-12-21T23:47:19.818Z,9.90
2018-12-21T23:49:49.141Z,9.90
2018-12-21T23:52:18.717Z,9.70
2018-12-21T23:54:48.061Z,9.60
2018-12-21T23:57:17.312Z,9.60
2018-12-21T23:59:46.581Z,9.50
